Time;durP1;ratioP1;P1;durP2;ratioP2;P2;SDS_P1;SDS_P2;PMS_P1;PMS_P2;Temp;Humidity;BMP_temperature;BMP_pressure;BME280_temperature;BME280_humidity;BME280_pressure;Samples;Min_cycle;Max_cycle;Signal;HPM_P1;HPM_P2
2024/02/17 00:01:29;;;;;;;16.70;10.90;;;;;;;;;;771461;180;918208;-63
2024/02/17 00:03:54;;;;;;;22.93;12.60;;;;;;;;;;769761;180;919295;-63
2024/02/17 00:06:20;;;;;;;20.27;12.23;;;;;;;;;;774522;180;924939;-63
2024/02/17 00:08:46;;;;;;;17.53;11.37;;;;;;;;;;767961;180;914797;-63
2024/02/17 00:11:12;;;;;;;21.13;12.30;;;;;;;;;;767113;180;921745;-66
2024/02/17 00:13:38;;;;;;;23.23;11.87;;;;;;;;;;768684;180;928264;-63
2024/02/17 00:16:04;;;;;;;17.97;11.00;;;;;;;;;;775976;180;918002;-63
2024/02/17 00:18:30;;;;;;;17.10;11.27;;;;;;;;;;765806;180;884687;-63
2024/02/17 00:21:02;;;;;;;21.23;10.87;;;;;;;;;;770237;180;918046;-67
2024/02/17 00:23:22;;;;;;;18.70;11.43;;;;;;;;;;773342;180;915867;-66
2024/02/17 00:25:48;;;;;;;18.80;10.97;;;;;;;;;;772205;180;817271;-66
2024/02/17 00:28:14;;;;;;;18.13;11.40;;;;;;;;;;769668;180;918367;-66
2024/02/17 00:30:40;;;;;;;19.93;11.80;;;;;;;;;;775836;180;817598;-63
2024/02/17 00:33:06;;;;;;;22.93;12.37;;;;;;;;;;768703;180;883637;-67
2024/02/17 00:35:32;;;;;;;19.00;13.00;;;;;;;;;;771949;180;888380;-63
2024/02/17 00:37:57;;;;;;;21.23;11.77;;;;;;;;;;773229;178;814569;-66
2024/02/17 00:40:23;;;;;;;35.27;11.47;;;;;;;;;;768314;179;794426;-64
2024/02/17 00:42:49;;;;;;;20.43;12.23;;;;;;;;;;765132;180;792499;-63
2024/02/17 00:45:15;;;;;;;21.00;11.53;;;;;;;;;;769608;180;843499;-64
2024/02/17 00:47:41;;;;;;;18.10;11.10;;;;;;;;;;775518;180;919369;-62
2024/02/17 00:50:07;;;;;;;28.87;13.00;;;;;;;;;;771901;180;923419;-67
2024/02/17 00:52:33;;;;;;;18.40;11.70;;;;;;;;;;763310;180;2045138;-63
2024/02/17 00:54:59;;;;;;;24.63;13.13;;;;;;;;;;777008;179;818471;-67
2024/02/17 00:57:25;;;;;;;20.40;13.37;;;;;;;;;;772060;180;820551;-62
2024/02/17 00:59:50;;;;;;;20.63;12.97;;;;;;;;;;769829;180;926564;-67
2024/02/17 01:02:16;;;;;;;28.80;13.23;;;;;;;;;;771225;180;919093;-63
2024/02/17 01:04:43;;;;;;;22.20;12.67;;;;;;;;;;760572;182;917212;-63
2024/02/17 01:07:08;;;;;;;19.30;12.47;;;;;;;;;;750538;184;928941;-67
2024/02/17 01:09:34;;;;;;;20.93;13.67;;;;;;;;;;768149;179;919586;-66
2024/02/17 01:12:00;;;;;;;25.40;13.10;;;;;;;;;;777287;180;816014;-66
2024/02/17 01:14:26;;;;;;;22.93;13.83;;;;;;;;;;771132;180;914293;-66
2024/02/17 01:16:51;;;;;;;18.83;12.80;;;;;;;;;;769459;180;1016759;-64
2024/02/17 01:19:17;;;;;;;22.40;14.20;;;;;;;;;;774210;180;915236;-63
2024/02/17 01:21:43;;;;;;;26.70;13.90;;;;;;;;;;770539;180;918581;-65
2024/02/17 01:24:09;;;;;;;21.07;12.87;;;;;;;;;;764920;180;917028;-67
2024/02/17 01:26:35;;;;;;;25.85;14.55;;;;;;;;;;769102;180;924191;-64
2024/02/17 01:29:01;;;;;;;25.37;13.60;;;;;;;;;;763401;180;917943;-63
2024/02/17 01:31:28;;;;;;;24.37;13.67;;;;;;;;;;768578;180;923473;-63
2024/02/17 01:33:53;;;;;;;20.60;13.77;;;;;;;;;;764999;180;919188;-66
2024/02/17 01:36:19;;;;;;;20.17;13.27;;;;;;;;;;774739;180;817260;-67
2024/02/17 01:38:46;;;;;;;19.17;13.07;;;;;;;;;;769993;180;918775;-65
2024/02/17 01:41:10;;;;;;;19.97;12.67;;;;;;;;;;769133;180;921060;-63
2024/02/17 01:43:36;;;;;;;23.23;12.50;;;;;;;;;;775080;180;918874;-67
2024/02/17 01:46:02;;;;;;;21.77;12.60;;;;;;;;;;769139;180;919181;-68
2024/02/17 01:48:28;;;;;;;21.77;12.50;;;;;;;;;;769137;180;919038;-64
2024/02/17 01:50:54;;;;;;;23.30;12.43;;;;;;;;;;775503;181;816661;-66
2024/02/17 01:53:20;;;;;;;24.80;12.70;;;;;;;;;;770090;180;819912;-66
2024/02/17 01:55:45;;;;;;;21.07;12.40;;;;;;;;;;768098;180;919711;-64
2024/02/17 01:58:11;;;;;;;23.73;13.83;;;;;;;;;;768205;180;915011;-63
2024/02/17 02:00:37;;;;;;;26.67;14.70;;;;;;;;;;775265;180;921241;-64
2024/02/17 02:03:03;;;;;;;17.17;12.70;;;;;;;;;;770837;180;917724;-64
2024/02/17 02:05:29;;;;;;;19.97;12.50;;;;;;;;;;771423;180;919007;-65
2024/02/17 02:07:55;;;;;;;19.80;11.70;;;;;;;;;;777710;180;817226;-63
2024/02/17 02:10:21;;;;;;;17.33;12.40;;;;;;;;;;772433;180;923214;-67
2024/02/17 02:12:46;;;;;;;18.60;11.30;;;;;;;;;;772828;180;829837;-64
2024/02/17 02:15:12;;;;;;;20.93;12.17;;;;;;;;;;775279;180;919492;-66
2024/02/17 02:17:38;;;;;;;20.20;11.80;;;;;;;;;;769716;180;915234;-66
2024/02/17 02:20:04;;;;;;;23.00;12.03;;;;;;;;;;769501;181;919347;-63
2024/02/17 02:22:30;;;;;;;18.47;12.43;;;;;;;;;;769106;180;1034377;-64
2024/02/17 02:24:57;;;;;;;20.73;13.30;;;;;;;;;;775926;180;814819;-66
2024/02/17 02:27:22;;;;;;;22.50;11.27;;;;;;;;;;769972;180;908857;-65
2024/02/17 02:29:48;;;;;;;19.00;12.23;;;;;;;;;;770072;180;915603;-63
2024/02/17 02:32:14;;;;;;;22.07;12.23;;;;;;;;;;776543;180;794466;-66
2024/02/17 02:34:40;;;;;;;18.80;12.67;;;;;;;;;;775823;178;676515;-63
2024/02/17 02:37:05;;;;;;;18.10;12.60;;;;;;;;;;774983;180;924190;-68
2024/02/17 02:39:31;;;;;;;26.10;12.80;;;;;;;;;;780263;179;612372;-68
2024/02/17 02:41:57;;;;;;;19.10;10.90;;;;;;;;;;776093;177;614195;-63
2024/02/17 02:44:23;;;;;;;19.65;11.55;;;;;;;;;;770842;180;918777;-66
2024/02/17 02:46:49;;;;;;;17.43;10.70;;;;;;;;;;766210;180;903681;-66
2024/02/17 02:49:15;;;;;;;16.13;11.10;;;;;;;;;;764909;180;913725;-65
2024/02/17 02:51:40;;;;;;;19.73;12.07;;;;;;;;;;768736;180;918583;-66
2024/02/17 02:54:06;;;;;;;17.50;11.30;;;;;;;;;;769644;180;865161;-66
2024/02/17 02:56:32;;;;;;;17.13;10.90;;;;;;;;;;775678;180;761339;-68
2024/02/17 02:58:58;;;;;;;16.00;11.40;;;;;;;;;;763480;180;918164;-68
2024/02/17 03:01:24;;;;;;;18.13;11.43;;;;;;;;;;768377;180;919805;-66
2024/02/17 03:03:50;;;;;;;17.35;10.60;;;;;;;;;;773428;180;918965;-64
2024/02/17 03:06:16;;;;;;;14.93;10.43;;;;;;;;;;770175;180;826440;-63
2024/02/17 03:08:41;;;;;;;23.17;12.43;;;;;;;;;;769024;180;911377;-68
2024/02/17 03:11:07;;;;;;;19.87;11.25;;;;;;;;;;773446;180;816596;-66
2024/02/17 03:13:34;;;;;;;18.27;10.70;;;;;;;;;;769798;180;918419;-63
2024/02/17 03:16:00;;;;;;;23.23;11.63;;;;;;;;;;769786;180;884403;-67
2024/02/17 03:18:25;;;;;;;15.43;10.30;;;;;;;;;;771213;178;916729;-64
2024/02/17 03:20:51;;;;;;;18.17;10.90;;;;;;;;;;777467;180;786987;-67
2024/02/17 03:23:17;;;;;;;13.93;10.23;;;;;;;;;;771563;180;916660;-66
2024/02/17 03:25:43;;;;;;;17.30;10.50;;;;;;;;;;769703;180;917765;-66
2024/02/17 03:28:09;;;;;;;15.47;10.17;;;;;;;;;;776538;180;836200;-66
2024/02/17 03:30:35;;;;;;;18.27;10.60;;;;;;;;;;771975;180;865970;-64
2024/02/17 03:33:01;;;;;;;14.60;9.97;;;;;;;;;;770922;180;906635;-64
2024/02/17 03:35:27;;;;;;;18.83;10.63;;;;;;;;;;773029;180;860682;-66
2024/02/17 03:37:52;;;;;;;18.00;12.50;;;;;;;;;;769153;180;893766;-66
2024/02/17 03:40:20;;;;;;;17.60;11.03;;;;;;;;;;769262;180;919131;-63
2024/02/17 03:42:44;;;;;;;19.65;11.55;;;;;;;;;;768257;180;920524;-63
2024/02/17 03:45:10;;;;;;;18.20;11.67;;;;;;;;;;771744;180;929616;-63
2024/02/17 03:47:36;;;;;;;18.10;12.87;;;;;;;;;;768790;180;915879;-68
2024/02/17 03:50:03;;;;;;;16.97;9.40;;;;;;;;;;768001;180;943691;-65
2024/02/17 03:52:28;;;;;;;16.43;11.70;;;;;;;;;;774706;180;816997;-67
2024/02/17 03:54:54;;;;;;;23.07;12.23;;;;;;;;;;770452;180;919018;-64
2024/02/17 03:57:20;;;;;;;23.77;11.63;;;;;;;;;;770697;180;918341;-67
2024/02/17 03:59:45;;;;;;;20.37;12.50;;;;;;;;;;774561;180;816281;-67
2024/02/17 04:02:11;;;;;;;18.40;11.53;;;;;;;;;;768632;180;941907;-65
2024/02/17 04:04:37;;;;;;;18.03;11.57;;;;;;;;;;768953;180;922990;-66
2024/02/17 04:07:03;;;;;;;16.30;11.07;;;;;;;;;;767763;180;918998;-64
2024/02/17 04:09:29;;;;;;;17.63;10.37;;;;;;;;;;769534;180;919057;-64
2024/02/17 04:11:55;;;;;;;18.53;10.73;;;;;;;;;;769641;180;876361;-63
2024/02/17 04:14:20;;;;;;;15.80;9.27;;;;;;;;;;768424;180;934977;-63
2024/02/17 04:16:46;;;;;;;15.80;9.80;;;;;;;;;;770360;180;910664;-67
2024/02/17 04:19:12;;;;;;;24.93;11.57;;;;;;;;;;767705;180;914564;-68
2024/02/17 04:21:38;;;;;;;18.30;11.30;;;;;;;;;;769596;180;915171;-63
2024/02/17 04:24:04;;;;;;;16.43;10.40;;;;;;;;;;773489;180;903520;-66
2024/02/17 04:26:30;;;;;;;18.37;10.97;;;;;;;;;;770075;180;873924;-64
2024/02/17 04:28:56;;;;;;;17.47;11.00;;;;;;;;;;771005;179;876466;-64
2024/02/17 04:31:22;;;;;;;14.90;10.13;;;;;;;;;;774526;180;816071;-66
2024/02/17 04:33:47;;;;;;;16.80;10.87;;;;;;;;;;773097;180;817803;-67
2024/02/17 04:36:13;;;;;;;16.60;9.73;;;;;;;;;;774030;178;918077;-67
2024/02/17 04:38:40;;;;;;;17.25;10.02;;;;;;;;;;770621;180;929059;-67
2024/02/17 04:41:05;;;;;;;15.67;10.13;;;;;;;;;;774767;180;916929;-66
2024/02/17 04:43:31;;;;;;;16.43;9.90;;;;;;;;;;772002;180;902526;-63
2024/02/17 04:45:57;;;;;;;18.33;11.65;;;;;;;;;;770358;180;922569;-67
2024/02/17 04:48:23;;;;;;;18.50;10.50;;;;;;;;;;774523;180;913956;-66
2024/02/17 04:50:48;;;;;;;15.80;10.80;;;;;;;;;;769777;180;913112;-66
2024/02/17 04:53:14;;;;;;;17.60;10.50;;;;;;;;;;768252;180;1123183;-68
2024/02/17 04:55:41;;;;;;;15.35;10.60;;;;;;;;;;770769;180;917852;-67
2024/02/17 04:58:06;;;;;;;18.17;11.53;;;;;;;;;;759418;183;917112;-67
2024/02/17 05:00:32;;;;;;;16.87;11.03;;;;;;;;;;763435;180;901443;-66
2024/02/17 05:02:58;;;;;;;18.37;11.87;;;;;;;;;;768325;180;919859;-66
2024/02/17 05:05:24;;;;;;;15.43;9.57;;;;;;;;;;777236;180;914632;-64
2024/02/17 05:07:50;;;;;;;19.30;11.90;;;;;;;;;;773885;180;711789;-63
2024/02/17 05:10:16;;;;;;;16.43;10.00;;;;;;;;;;771011;180;888075;-63
2024/02/17 05:12:41;;;;;;;16.60;9.63;;;;;;;;;;773419;180;917651;-67
2024/02/17 05:15:08;;;;;;;16.43;9.70;;;;;;;;;;769803;180;919151;-67
2024/02/17 05:17:33;;;;;;;14.20;9.80;;;;;;;;;;769814;180;884287;-66
2024/02/17 05:19:59;;;;;;;18.10;10.80;;;;;;;;;;774038;180;817269;-63
2024/02/17 05:22:25;;;;;;;20.80;11.10;;;;;;;;;;768247;180;919316;-64
2024/02/17 05:24:51;;;;;;;18.20;11.17;;;;;;;;;;768397;180;921334;-62
2024/02/17 05:27:17;;;;;;;18.92;10.75;;;;;;;;;;768629;180;919140;-64
2024/02/17 05:29:43;;;;;;;19.23;12.57;;;;;;;;;;775210;180;914288;-68
2024/02/17 05:32:08;;;;;;;18.97;10.30;;;;;;;;;;769687;180;917372;-66
2024/02/17 05:34:34;;;;;;;16.50;10.27;;;;;;;;;;769704;180;918644;-67
2024/02/17 05:37:00;;;;;;;16.80;9.67;;;;;;;;;;775634;180;918285;-64
2024/02/17 05:39:26;;;;;;;16.37;10.87;;;;;;;;;;768445;180;918504;-67
2024/02/17 05:41:52;;;;;;;18.43;11.60;;;;;;;;;;775311;179;783762;-66
2024/02/17 05:44:18;;;;;;;19.03;11.67;;;;;;;;;;776082;180;915583;-65
2024/02/17 05:46:43;;;;;;;14.60;9.70;;;;;;;;;;769625;180;918743;-67
2024/02/17 05:49:09;;;;;;;17.27;11.73;;;;;;;;;;771121;180;816024;-63
2024/02/17 05:51:35;;;;;;;15.23;9.90;;;;;;;;;;770227;180;816551;-66
2024/02/17 05:54:01;;;;;;;20.50;12.27;;;;;;;;;;776541;180;817057;-62
2024/02/17 05:56:27;;;;;;;17.13;11.30;;;;;;;;;;772174;180;919328;-68
2024/02/17 05:58:53;;;;;;;16.10;9.97;;;;;;;;;;768526;180;1021563;-68
2024/02/17 06:01:19;;;;;;;15.83;9.90;;;;;;;;;;775634;180;818391;-68
2024/02/17 06:03:45;;;;;;;17.00;10.03;;;;;;;;;;770779;180;919471;-64
2024/02/17 06:06:10;;;;;;;14.97;10.07;;;;;;;;;;771590;180;772172;-66
2024/02/17 06:08:36;;;;;;;14.17;9.87;;;;;;;;;;773564;180;922291;-68
2024/02/17 06:11:02;;;;;;;15.23;10.50;;;;;;;;;;771279;180;1015569;-67
2024/02/17 06:13:28;;;;;;;18.77;12.80;;;;;;;;;;769975;180;920792;-63
2024/02/17 06:15:54;;;;;;;16.97;10.70;;;;;;;;;;769047;179;921464;-66
2024/02/17 06:23:23;;;;;;;19.53;11.30;;;;;;;;;;772363;180;636062;-68
2024/02/17 06:25:49;;;;;;;15.30;11.17;;;;;;;;;;770440;180;917519;-66
2024/02/17 06:28:15;;;;;;;16.98;9.43;;;;;;;;;;771881;180;918948;-66
2024/02/17 06:30:40;;;;;;;17.20;9.60;;;;;;;;;;768019;180;918568;-62
2024/02/17 06:33:06;;;;;;;17.47;9.60;;;;;;;;;;768471;180;858574;-64
2024/02/17 06:35:32;;;;;;;20.53;9.93;;;;;;;;;;776081;180;918672;-64
2024/02/17 06:37:58;;;;;;;19.60;10.10;;;;;;;;;;769993;180;1022141;-66
2024/02/17 06:40:24;;;;;;;16.37;9.80;;;;;;;;;;768902;180;931561;-63
2024/02/17 06:42:50;;;;;;;16.23;10.47;;;;;;;;;;773791;180;880524;-63
2024/02/17 06:45:16;;;;;;;15.10;9.67;;;;;;;;;;770111;180;887796;-66
2024/02/17 06:47:41;;;;;;;16.67;9.50;;;;;;;;;;769108;180;917338;-66
2024/02/17 06:50:08;;;;;;;14.70;9.25;;;;;;;;;;772436;180;1020601;-63
2024/02/17 06:52:34;;;;;;;15.23;8.83;;;;;;;;;;760690;183;938580;-63
2024/02/17 06:55:00;;;;;;;20.03;11.00;;;;;;;;;;750876;184;920673;-63
2024/02/17 06:57:25;;;;;;;18.43;10.70;;;;;;;;;;752663;184;919049;-66
2024/02/17 06:59:51;;;;;;;11.90;10.20;;;;;;;;;;774238;180;894882;-63
2024/02/17 07:02:22;;;;;;;16.47;10.20;;;;;;;;;;771000;180;918820;-67
2024/02/17 07:04:43;;;;;;;16.60;9.87;;;;;;;;;;769399;180;1000942;-63
2024/02/17 07:07:09;;;;;;;15.13;9.87;;;;;;;;;;775955;180;817607;-64
2024/02/17 07:09:35;;;;;;;14.43;10.50;;;;;;;;;;774843;180;629456;-63
2024/02/17 07:12:01;;;;;;;19.47;9.63;;;;;;;;;;774362;180;624467;-63
2024/02/17 07:14:29;;;;;;;20.50;8.70;;;;;;;;;;773333;180;626488;-66
2024/02/17 07:16:56;;;;;;;18.03;11.03;;;;;;;;;;775787;180;623703;-64
2024/02/17 07:19:21;;;;;;;16.93;8.97;;;;;;;;;;772741;180;628342;-63
2024/02/17 07:21:47;;;;;;;15.90;10.50;;;;;;;;;;770794;180;823631;-67
2024/02/17 07:24:13;;;;;;;14.40;10.43;;;;;;;;;;776062;180;918595;-66
2024/02/17 07:26:42;;;;;;;15.60;9.60;;;;;;;;;;772974;180;919379;-68
2024/02/17 07:29:07;;;;;;;22.07;11.23;;;;;;;;;;772565;180;634854;-64
2024/02/17 07:31:41;;;;;;;15.87;10.47;;;;;;;;;;777644;180;619001;-68
2024/02/17 07:34:07;;;;;;;16.73;10.57;;;;;;;;;;775921;180;643102;-64
2024/02/17 07:36:32;;;;;;;16.87;10.50;;;;;;;;;;772201;180;631307;-67
2024/02/17 07:38:58;;;;;;;16.40;9.60;;;;;;;;;;770517;180;628878;-66
2024/02/17 07:41:26;;;;;;;23.47;11.50;;;;;;;;;;775393;180;811641;-66
2024/02/17 07:43:52;;;;;;;16.43;9.80;;;;;;;;;;770324;180;905871;-65
2024/02/17 07:46:16;;;;;;;15.57;10.30;;;;;;;;;;768360;180;876669;-64
2024/02/17 07:48:42;;;;;;;19.53;12.00;;;;;;;;;;772777;180;918586;-64
2024/02/17 07:51:08;;;;;;;15.27;9.35;;;;;;;;;;769878;180;918865;-65
2024/02/17 07:53:33;;;;;;;16.70;10.37;;;;;;;;;;770773;180;915451;-65
2024/02/17 07:55:59;;;;;;;18.07;10.90;;;;;;;;;;768791;180;924957;-64
2024/02/17 07:58:25;;;;;;;15.27;9.73;;;;;;;;;;774114;180;802800;-64
2024/02/17 08:00:51;;;;;;;17.57;11.00;;;;;;;;;;769082;180;923088;-65
2024/02/17 08:03:18;;;;;;;19.90;10.07;;;;;;;;;;770093;179;916195;-65
2024/02/17 08:05:43;;;;;;;22.02;12.52;;;;;;;;;;774154;180;1021159;-65
2024/02/17 08:08:09;;;;;;;15.50;10.50;;;;;;;;;;773183;180;752271;-65
2024/02/17 08:10:35;;;;;;;16.80;10.77;;;;;;;;;;767769;180;869111;-64
2024/02/17 08:13:01;;;;;;;22.33;11.23;;;;;;;;;;774167;180;874647;-65
2024/02/17 08:15:27;;;;;;;16.50;12.30;;;;;;;;;;771718;180;817299;-64
2024/02/17 08:17:53;;;;;;;17.03;10.63;;;;;;;;;;769794;180;805199;-66
2024/02/17 08:20:19;;;;;;;21.70;13.20;;;;;;;;;;770805;180;818275;-63
2024/02/17 08:22:44;;;;;;;17.40;12.43;;;;;;;;;;768053;180;844508;-64
2024/02/17 08:25:11;;;;;;;21.57;13.80;;;;;;;;;;767800;180;919732;-66
2024/02/17 08:27:36;;;;;;;18.70;11.27;;;;;;;;;;769614;180;761884;-65
2024/02/17 08:30:03;;;;;;;17.33;11.90;;;;;;;;;;772497;180;951395;-65
2024/02/17 08:32:28;;;;;;;17.30;11.87;;;;;;;;;;773474;180;631061;-64
2024/02/17 08:34:54;;;;;;;19.50;11.50;;;;;;;;;;773805;180;637155;-67
2024/02/17 08:37:20;;;;;;;19.00;11.33;;;;;;;;;;777844;180;625873;-64
2024/02/17 08:39:48;;;;;;;15.60;11.03;;;;;;;;;;774788;180;617824;-64
2024/02/17 08:42:13;;;;;;;20.57;12.57;;;;;;;;;;771746;180;636743;-66
2024/02/17 08:44:39;;;;;;;18.40;12.77;;;;;;;;;;770688;180;914546;-64
2024/02/17 08:47:05;;;;;;;19.23;11.60;;;;;;;;;;760903;182;708822;-63
2024/02/17 08:49:31;;;;;;;21.17;12.63;;;;;;;;;;767692;180;880290;-64
2024/02/17 08:51:57;;;;;;;19.17;11.77;;;;;;;;;;769961;180;820941;-64
2024/02/17 08:54:25;;;;;;;18.53;11.80;;;;;;;;;;777546;180;628152;-63
2024/02/17 08:56:49;;;;;;;20.50;13.77;;;;;;;;;;772696;180;824525;-65
2024/02/17 08:59:15;;;;;;;22.17;14.77;;;;;;;;;;770707;180;822431;-63
2024/02/17 09:01:41;;;;;;;17.07;11.93;;;;;;;;;;775440;180;840644;-63
2024/02/17 09:04:07;;;;;;;21.40;12.40;;;;;;;;;;770954;180;829308;-64
2024/02/17 09:06:33;;;;;;;26.53;12.87;;;;;;;;;;771460;180;910333;-66
2024/02/17 09:08:59;;;;;;;19.80;12.20;;;;;;;;;;766629;180;913012;-65
2024/02/17 09:11:24;;;;;;;19.87;13.13;;;;;;;;;;766519;179;816150;-64
2024/02/17 09:13:50;;;;;;;21.65;12.77;;;;;;;;;;768923;180;815981;-67
2024/02/17 09:16:16;;;;;;;25.70;14.30;;;;;;;;;;772186;179;817173;-67
2024/02/17 09:18:42;;;;;;;23.30;13.70;;;;;;;;;;778923;180;645680;-64
2024/02/17 09:21:08;;;;;;;29.80;16.00;;;;;;;;;;770535;180;953702;-64
2024/02/17 09:23:34;;;;;;;21.40;14.40;;;;;;;;;;772798;180;716912;-65
2024/02/17 09:26:00;;;;;;;22.30;13.90;;;;;;;;;;775289;180;830426;-64
2024/02/17 09:28:25;;;;;;;24.97;13.53;;;;;;;;;;771084;180;918413;-64
2024/02/17 09:30:51;;;;;;;20.43;14.30;;;;;;;;;;770672;180;918522;-63
2024/02/17 09:33:19;;;;;;;21.03;14.80;;;;;;;;;;773391;180;916799;-64
2024/02/17 09:35:43;;;;;;;20.40;14.23;;;;;;;;;;770124;180;894848;-66
2024/02/17 09:38:09;;;;;;;26.83;15.37;;;;;;;;;;768174;180;921717;-65
2024/02/17 09:40:35;;;;;;;24.90;15.30;;;;;;;;;;768881;180;919321;-64
2024/02/17 09:43:00;;;;;;;23.77;14.87;;;;;;;;;;774825;180;925653;-64
2024/02/17 09:45:26;;;;;;;21.27;15.53;;;;;;;;;;770793;180;916333;-65
2024/02/17 09:47:52;;;;;;;24.63;14.97;;;;;;;;;;770746;180;918661;-66
2024/02/17 09:50:18;;;;;;;21.10;13.50;;;;;;;;;;772241;180;753734;-64
2024/02/17 09:52:44;;;;;;;26.73;17.17;;;;;;;;;;767721;180;941909;-63
2024/02/17 09:55:10;;;;;;;22.23;14.90;;;;;;;;;;770098;180;917477;-62
2024/02/17 09:57:36;;;;;;;23.40;15.70;;;;;;;;;;773302;180;923023;-63
2024/02/17 10:00:04;;;;;;;24.00;15.90;;;;;;;;;;769635;180;879355;-63
2024/02/17 10:02:30;;;;;;;26.53;15.67;;;;;;;;;;770324;180;822576;-63
2024/02/17 10:04:56;;;;;;;23.35;14.55;;;;;;;;;;767777;180;918388;-63
2024/02/17 10:07:22;;;;;;;25.53;15.00;;;;;;;;;;774787;180;1020540;-64
2024/02/17 10:09:48;;;;;;;21.97;13.27;;;;;;;;;;770746;180;818674;-64
2024/02/17 10:12:13;;;;;;;24.25;15.15;;;;;;;;;;768537;180;849521;-65
2024/02/17 10:14:40;;;;;;;25.10;15.00;;;;;;;;;;774807;180;908167;-64
2024/02/17 10:17:08;;;;;;;25.10;14.77;;;;;;;;;;768985;180;896359;-63
2024/02/17 10:19:32;;;;;;;26.43;15.40;;;;;;;;;;770577;180;920554;-63
2024/02/17 10:21:58;;;;;;;22.75;14.65;;;;;;;;;;772402;180;917910;-64
2024/02/17 10:24:24;;;;;;;23.33;15.93;;;;;;;;;;757504;182;900508;-64
2024/02/17 10:26:50;;;;;;;22.80;14.10;;;;;;;;;;765403;179;1684356;-65
2024/02/17 10:29:16;;;;;;;26.23;15.90;;;;;;;;;;775028;180;633098;-64
2024/02/17 10:31:42;;;;;;;23.90;15.23;;;;;;;;;;776848;180;708230;-65
2024/02/17 10:34:08;;;;;;;21.40;14.13;;;;;;;;;;765456;180;1014852;-65
2024/02/17 10:36:34;;;;;;;24.63;15.80;;;;;;;;;;773732;180;638207;-65
2024/02/17 10:39:00;;;;;;;24.20;14.50;;;;;;;;;;777321;180;618303;-65
2024/02/17 10:41:25;;;;;;;23.27;14.70;;;;;;;;;;773559;180;927017;-63
2024/02/17 10:43:51;;;;;;;25.53;14.13;;;;;;;;;;773617;180;844110;-64
2024/02/17 10:46:18;;;;;;;21.10;14.47;;;;;;;;;;774503;180;638511;-65
2024/02/17 10:48:43;;;;;;;27.57;16.10;;;;;;;;;;769614;180;631611;-65
2024/02/17 10:51:09;;;;;;;23.20;15.53;;;;;;;;;;770833;180;632302;-64
2024/02/17 10:53:34;;;;;;;24.77;14.93;;;;;;;;;;771287;180;646442;-65
2024/02/17 10:56:01;;;;;;;30.95;15.10;;;;;;;;;;775067;179;907634;-65
2024/02/17 10:58:27;;;;;;;24.80;17.50;;;;;;;;;;773711;180;628346;-63
2024/02/17 11:00:53;;;;;;;23.77;16.30;;;;;;;;;;773311;180;637956;-62
2024/02/17 11:03:19;;;;;;;20.20;14.00;;;;;;;;;;772989;180;765177;-64
2024/02/17 11:05:45;;;;;;;26.47;15.30;;;;;;;;;;773733;180;625029;-63
2024/02/17 11:08:11;;;;;;;23.90;16.37;;;;;;;;;;771337;180;913956;-66
2024/02/17 11:10:37;;;;;;;25.23;14.07;;;;;;;;;;774198;180;912256;-65
2024/02/17 11:13:04;;;;;;;23.47;15.27;;;;;;;;;;769652;180;817520;-62
2024/02/17 11:15:30;;;;;;;22.00;14.33;;;;;;;;;;769413;180;818297;-63
2024/02/17 11:17:56;;;;;;;22.80;15.67;;;;;;;;;;769100;180;787203;-64
2024/02/17 11:20:22;;;;;;;27.15;15.73;;;;;;;;;;774419;180;778472;-64
2024/02/17 11:22:58;;;;;;;25.53;18.23;;;;;;;;;;760381;180;946617;-64
2024/02/17 11:25:26;;;;;;;32.60;18.50;;;;;;;;;;769358;180;909747;-64
2024/02/17 11:27:52;;;;;;;24.20;16.70;;;;;;;;;;764637;180;919302;-67
2024/02/17 11:30:18;;;;;;;29.30;17.20;;;;;;;;;;774181;180;1021919;-65
2024/02/17 11:32:44;;;;;;;28.97;18.70;;;;;;;;;;771124;180;916509;-63
2024/02/17 11:35:09;;;;;;;35.03;18.60;;;;;;;;;;769935;180;918137;-66
2024/02/17 11:37:35;;;;;;;29.83;19.52;;;;;;;;;;772626;180;919498;-63
2024/02/17 11:40:02;;;;;;;29.47;18.93;;;;;;;;;;770899;178;856389;-63
2024/02/17 11:42:27;;;;;;;32.37;20.00;;;;;;;;;;770680;180;817826;-65
2024/02/17 11:44:53;;;;;;;31.80;20.10;;;;;;;;;;775640;180;918077;-66
2024/02/17 11:47:19;;;;;;;35.20;20.43;;;;;;;;;;766874;180;858652;-65
2024/02/17 11:49:45;;;;;;;35.10;20.93;;;;;;;;;;775142;180;652581;-64
2024/02/17 11:52:10;;;;;;;31.33;20.80;;;;;;;;;;770683;180;811226;-67
2024/02/17 11:54:37;;;;;;;29.50;19.27;;;;;;;;;;776035;180;915014;-66
2024/02/17 11:57:03;;;;;;;35.37;22.43;;;;;;;;;;769667;180;871738;-64
2024/02/17 11:59:29;;;;;;;28.13;18.40;;;;;;;;;;773254;180;753574;-66
2024/02/17 12:01:55;;;;;;;31.73;19.70;;;;;;;;;;775746;180;816636;-67
2024/02/17 12:04:21;;;;;;;27.60;18.30;;;;;;;;;;768552;180;919661;-64
2024/02/17 12:06:47;;;;;;;27.63;18.10;;;;;;;;;;769085;180;919677;-66
2024/02/17 12:09:12;;;;;;;34.70;21.17;;;;;;;;;;773187;180;919288;-66
2024/02/17 12:11:40;;;;;;;29.02;19.12;;;;;;;;;;768756;180;917632;-64
2024/02/17 12:14:04;;;;;;;28.47;20.80;;;;;;;;;;771865;180;830260;-64
2024/02/17 12:16:30;;;;;;;33.47;17.37;;;;;;;;;;766909;180;895573;-62
2024/02/17 12:18:56;;;;;;;33.27;20.30;;;;;;;;;;775766;180;909129;-65
2024/02/17 12:21:22;;;;;;;31.67;19.30;;;;;;;;;;770845;180;939789;-66
2024/02/17 12:23:48;;;;;;;28.30;17.57;;;;;;;;;;771039;180;812207;-64
2024/02/17 12:26:13;;;;;;;29.03;19.07;;;;;;;;;;773793;180;921101;-62
2024/02/17 12:28:40;;;;;;;28.23;18.80;;;;;;;;;;769094;180;864193;-62
2024/02/17 12:31:05;;;;;;;27.10;18.30;;;;;;;;;;767642;180;924722;-63
2024/02/17 12:33:31;;;;;;;30.13;18.27;;;;;;;;;;774770;180;816839;-63
2024/02/17 12:35:57;;;;;;;25.67;18.30;;;;;;;;;;768902;180;919199;-64
2024/02/17 12:38:23;;;;;;;31.17;18.83;;;;;;;;;;769833;180;874406;-65
2024/02/17 12:40:49;;;;;;;29.67;19.87;;;;;;;;;;769125;180;913331;-63
2024/02/17 12:43:17;;;;;;;31.70;19.13;;;;;;;;;;775313;180;820260;-63
2024/02/17 12:45:43;;;;;;;30.73;17.90;;;;;;;;;;769554;180;930658;-65
2024/02/17 12:48:09;;;;;;;32.57;18.03;;;;;;;;;;770257;180;900925;-65
2024/02/17 12:50:34;;;;;;;31.07;18.30;;;;;;;;;;775309;180;906362;-65
2024/02/17 12:53:21;;;;;;;30.60;19.57;;;;;;;;;;771860;180;875682;-65
2024/02/17 12:55:46;;;;;;;28.23;17.80;;;;;;;;;;771599;180;816631;-65
2024/02/17 12:58:11;;;;;;;27.47;16.47;;;;;;;;;;772931;180;905499;-65
2024/02/17 13:00:37;;;;;;;23.43;15.90;;;;;;;;;;773980;180;629220;-64
2024/02/17 13:03:04;;;;;;;23.67;15.70;;;;;;;;;;768783;180;915317;-66
2024/02/17 13:05:29;;;;;;;29.40;19.00;;;;;;;;;;768950;180;923450;-63
2024/02/17 13:07:55;;;;;;;25.90;17.40;;;;;;;;;;772129;180;911278;-64
2024/02/17 13:10:21;;;;;;;27.13;17.40;;;;;;;;;;777142;180;886665;-65
2024/02/17 13:12:47;;;;;;;24.30;16.07;;;;;;;;;;772958;180;757423;-63
2024/02/17 13:15:19;;;;;;;30.02;18.12;;;;;;;;;;769988;180;915089;-64
2024/02/17 13:17:39;;;;;;;31.03;20.70;;;;;;;;;;773885;180;802484;-67
2024/02/17 13:20:05;;;;;;;27.60;17.93;;;;;;;;;;769238;180;916145;-68
2024/02/17 13:22:31;;;;;;;28.50;18.17;;;;;;;;;;772704;180;865996;-64
2024/02/17 13:24:56;;;;;;;23.87;16.20;;;;;;;;;;771168;180;896231;-65
2024/02/17 13:27:22;;;;;;;28.63;19.37;;;;;;;;;;760035;182;772409;-67
2024/02/17 13:29:48;;;;;;;28.77;19.00;;;;;;;;;;767664;180;935296;-67
2024/02/17 13:32:14;;;;;;;31.25;20.77;;;;;;;;;;767207;180;913960;-67
2024/02/17 13:34:40;;;;;;;29.70;17.93;;;;;;;;;;774878;180;922408;-65
2024/02/17 13:37:06;;;;;;;32.63;20.00;;;;;;;;;;768793;180;878474;-67
2024/02/17 13:39:32;;;;;;;25.43;18.10;;;;;;;;;;769332;180;882863;-65
2024/02/17 13:41:58;;;;;;;32.43;19.33;;;;;;;;;;776737;180;612449;-67
2024/02/17 13:44:23;;;;;;;31.70;19.50;;;;;;;;;;770356;180;625225;-64
2024/02/17 13:46:49;;;;;;;40.03;21.53;;;;;;;;;;773757;180;643564;-65
2024/02/17 13:49:15;;;;;;;29.50;18.60;;;;;;;;;;776239;180;617607;-68
2024/02/17 13:51:41;;;;;;;31.53;21.97;;;;;;;;;;772397;180;620608;-65
2024/02/17 13:54:08;;;;;;;33.00;21.93;;;;;;;;;;772081;180;642122;-64
2024/02/17 13:56:33;;;;;;;28.43;18.97;;;;;;;;;;771654;180;758437;-65
2024/02/17 13:59:00;;;;;;;34.03;19.60;;;;;;;;;;777897;180;711865;-65
2024/02/17 14:01:25;;;;;;;40.47;22.17;;;;;;;;;;773032;179;870540;-64
2024/02/17 14:03:50;;;;;;;34.10;18.93;;;;;;;;;;773794;180;817944;-67